Time;durP1;ratioP1;P1;durP2;ratioP2;P2;SDS_P1;SDS_P2;PMS_P1;PMS_P2;Temp;Humidity;BMP_temperature;BMP_pressure;BME280_temperature;BME280_humidity;BME280_pressure;Samples;Min_cycle;Max_cycle;Signal;HPM_P1;HPM_P2
2022/01/26 00:06:46;;;;;;;92.13;26.95;;;3.50;99.90;;;;;;5103620;28;20051;-85
2022/01/26 00:09:12;;;;;;;89.00;26.45;;;4.00;99.90;;;;;;5089810;27;20031;-85
2022/01/26 00:11:38;;;;;;;;;;;3.40;99.90;;;;;;5127339;27;20099;-84
2022/01/26 00:14:12;;;;;;;97.80;28.70;;;3.50;99.90;;;;;;5126789;27;19915;-85
2022/01/26 00:16:40;;;;;;;97.95;28.02;;;3.50;99.90;;;;;;5121779;27;20039;-84
2022/01/26 00:19:15;;;;;;;95.00;28.35;;;3.50;99.90;;;;;;5117669;27;20035;-85
2022/01/26 00:21:47;;;;;;;94.20;28.38;;;3.50;99.90;;;;;;5121323;27;20039;-85
2022/01/26 00:24:38;;;;;;;103.90;28.50;;;3.50;99.90;;;;;;5116745;27;20046;-85
2022/01/26 00:27:22;;;;;;;107.60;30.17;;;3.40;99.90;;;;;;5123876;27;20043;-85
2022/01/26 00:29:58;;;;;;;92.35;29.17;;;3.50;99.90;;;;;;5118946;27;20288;-84
2022/01/26 00:40:43;;;;;;;95.95;25.85;;;3.40;99.90;;;;;;5120746;27;20097;-84
2022/01/26 00:43:23;;;;;;;97.25;28.98;;;3.40;99.90;;;;;;5121605;27;20060;-84
2022/01/26 00:45:55;;;;;;;94.47;26.25;;;4.30;99.90;;;;;;5122579;27;20383;-84
2022/01/26 00:48:21;;;;;;;95.97;28.92;;;3.40;99.90;;;;;;5104537;27;20096;-85
2022/01/26 00:50:51;;;;;;;;;;;3.30;99.90;;;;;;5124796;27;20031;-84
2022/01/26 00:53:19;;;;;;;96.40;29.60;;;4.30;99.90;;;;;;5106659;27;19962;-84
2022/01/26 00:55:45;;;;;;;88.75;27.05;;;3.30;99.90;;;;;;5105774;27;20042;-84
2022/01/26 00:58:10;;;;;;;92.55;27.02;;;3.30;99.90;;;;;;5104963;27;20118;-85
2022/01/26 01:00:36;;;;;;;99.63;29.60;;;3.30;99.90;;;;;;5117694;27;20035;-85
2022/01/26 01:03:03;;;;;;;109.20;28.50;;;4.40;99.90;;;;;;5103667;28;20285;-84
2022/01/26 01:05:37;;;;;;;90.25;27.38;;;3.30;99.90;;;;;;5129739;27;20310;-85
2022/01/26 01:08:12;;;;;;;91.55;27.40;;;3.30;99.90;;;;;;5124133;27;20039;-85
2022/01/26 01:10:39;;;;;;;103.68;28.92;;;3.30;99.90;;;;;;5129795;27;20043;-85
2022/01/26 01:13:08;;;;;;;90.45;27.30;;;3.60;99.90;;;;;;5106531;27;20070;-84
2022/01/26 01:15:34;;;;;;;88.18;26.67;;;3.40;99.90;;;;;;5107348;27;20043;-84
2022/01/26 01:18:09;;;;;;;100.85;26.63;;;4.20;99.90;;;;;;5105683;27;20039;-84
2022/01/26 01:31:39;;;;;;;100.70;28.13;;;3.40;99.90;;;;;;5093941;27;20100;-84
2022/01/26 01:34:04;;;;;;;95.45;28.10;;;3.80;99.90;;;;;;5123283;27;20070;-85
2022/01/26 01:36:29;;;;;;;95.25;26.88;;;3.30;99.90;;;;;;5107837;27;20035;-85
2022/01/26 01:38:57;;;;;;;90.35;27.33;;;3.30;99.90;;;;;;5125696;27;20035;-85
2022/01/26 01:41:22;;;;;;;92.78;27.90;;;3.30;99.90;;;;;;5124648;27;20050;-84
2022/01/26 01:43:48;;;;;;;91.88;26.58;;;4.60;99.90;;;;;;5125984;27;20039;-85
2022/01/26 01:46:14;;;;;;;95.78;27.42;;;3.30;99.90;;;;;;5106038;27;20036;-85
2022/01/26 01:48:40;;;;;;;93.78;28.20;;;3.30;99.90;;;;;;5123315;27;20126;-85
2022/01/26 01:51:09;;;;;;;86.53;26.83;;;3.30;99.90;;;;;;5120842;27;20402;-85
2022/01/26 01:53:45;;;;;;;87.95;26.90;;;3.30;99.90;;;;;;5107184;28;20577;-84
2022/01/26 01:56:15;;;;;;;88.07;26.48;;;3.20;99.90;;;;;;5126094;27;20435;-84
2022/01/26 01:58:42;;;;;;;92.90;26.60;;;3.30;99.90;;;;;;5110231;27;20083;-84
2022/01/26 02:01:08;;;;;;;;;;;3.20;99.90;;;;;;5130665;27;20039;-84
2022/01/26 02:03:34;;;;;;;91.03;27.67;;;3.20;99.90;;;;;;5104896;27;19937;-84
2022/01/26 02:06:00;;;;;;;94.38;27.70;;;3.30;99.90;;;;;;5117259;27;20043;-85
2022/01/26 02:08:26;;;;;;;89.75;25.45;;;3.20;99.90;;;;;;5102726;27;20039;-84
2022/01/26 02:10:51;;;;;;;79.60;25.30;;;3.30;99.90;;;;;;5122430;27;20035;-84
2022/01/26 02:13:28;;;;;;;90.30;26.13;;;3.30;99.90;;;;;;5120206;27;20103;-84
2022/01/26 02:51:32;;;;;;;97.15;28.25;;;3.30;99.90;;;;;;5102651;28;20051;-84
2022/01/26 03:06:35;;;;;;;101.72;28.27;;;3.20;99.90;;;;;;5110806;28;20508;-85
2022/01/26 03:09:08;;;;;;;105.70;29.02;;;4.10;99.90;;;;;;5105400;28;20403;-85
2022/01/26 03:11:36;;;;;;;95.13;28.02;;;3.20;99.90;;;;;;5085649;28;20036;-84
2022/01/26 03:14:20;;;;;;;91.18;27.52;;;3.20;99.90;;;;;;5088805;28;20134;-84
2022/01/26 03:16:53;;;;;;;95.05;27.13;;;3.20;99.90;;;;;;5100497;28;20040;-84
2022/01/26 03:19:23;;;;;;;91.00;26.70;;;3.20;99.90;;;;;;5102785;28;20039;-84
2022/01/26 03:33:10;;;;;;;81.13;24.70;;;3.30;99.90;;;;;;5114207;27;20160;-85
2022/01/26 03:38:06;;;;;;;83.57;25.77;;;3.30;99.90;;;;;;5121865;27;20122;-85
2022/01/26 03:40:35;;;;;;;86.88;26.23;;;4.20;99.90;;;;;;5129049;27;20130;-85
2022/01/26 03:43:01;;;;;;;87.07;26.70;;;3.30;99.90;;;;;;5136648;27;20501;-85
2022/01/26 03:45:26;;;;;;;88.97;27.13;;;4.10;99.90;;;;;;5112425;27;20035;-84
2022/01/26 03:47:54;;;;;;;85.93;25.73;;;4.00;99.90;;;;;;5111446;27;20082;-85
2022/01/26 03:50:23;;;;;;;92.93;26.80;;;3.20;99.90;;;;;;5110285;27;20071;-85
2022/01/26 03:52:49;;;;;;;84.18;26.38;;;3.20;99.90;;;;;;5126622;27;20043;-85
2022/01/26 03:55:15;;;;;;;82.82;26.52;;;3.20;99.90;;;;;;5131979;27;20057;-84
2022/01/26 03:57:41;;;;;;;78.43;24.65;;;3.20;99.90;;;;;;5129019;27;20034;-84
2022/01/26 04:00:08;;;;;;;87.47;26.00;;;3.20;99.90;;;;;;5126180;27;20034;-84
2022/01/26 04:02:35;;;;;;;80.30;24.20;;;3.10;99.90;;;;;;5100920;27;20043;-84
2022/01/26 04:05:05;;;;;;;77.22;24.90;;;3.20;99.90;;;;;;5128500;27;20051;-84
2022/01/26 04:07:31;;;;;;;73.13;22.75;;;3.20;99.90;;;;;;5124404;27;20062;-84
2022/01/26 04:10:11;;;;;;;74.95;22.58;;;3.20;99.90;;;;;;5106547;27;20130;-84
2022/01/26 04:12:38;;;;;;;79.88;24.30;;;4.10;99.90;;;;;;5090861;27;20045;-84
2022/01/26 04:15:13;;;;;;;76.35;24.63;;;3.30;99.90;;;;;;5089727;27;20042;-84
2022/01/26 04:17:39;;;;;;;69.25;23.50;;;3.30;99.90;;;;;;5129553;27;20039;-84
2022/01/26 04:20:05;;;;;;;72.90;24.27;;;3.20;99.90;;;;;;5127123;27;20035;-85
2022/01/26 04:22:40;;;;;;;70.35;23.20;;;3.30;99.90;;;;;;5133864;27;20422;-85
2022/01/26 04:25:08;;;;;;;69.82;22.33;;;3.30;99.90;;;;;;5113434;27;20046;-84
2022/01/26 04:27:41;;;;;;;71.13;22.23;;;3.40;99.90;;;;;;5125657;27;20042;-84
2022/01/26 04:30:08;;;;;;;66.28;21.63;;;3.40;99.90;;;;;;5119800;27;20104;-84
2022/01/26 04:32:35;;;;;;;75.80;22.75;;;3.40;99.90;;;;;;5129615;27;20096;-84
2022/01/26 04:35:00;;;;;;;75.53;24.85;;;3.50;99.90;;;;;;5120199;27;20051;-85
2022/01/26 04:37:48;;;;;;;64.63;20.48;;;3.40;99.90;;;;;;5122079;27;20036;-84
2022/01/26 04:40:16;;;;;;;71.32;24.73;;;3.30;99.90;;;;;;5111726;27;20452;-84
2022/01/26 04:42:51;;;;;;;73.05;21.77;;;3.20;99.90;;;;;;5110124;27;20455;-84
2022/01/26 04:45:17;;;;;;;66.93;20.67;;;3.30;99.90;;;;;;5125889;27;20440;-84
2022/01/26 04:47:43;;;;;;;61.30;20.92;;;3.30;99.90;;;;;;5124207;27;20038;-84
2022/01/26 04:50:11;;;;;;;67.85;22.08;;;3.30;99.90;;;;;;5121377;27;20173;-84
2022/01/26 04:52:40;;;;;;;67.38;21.15;;;3.30;99.90;;;;;;5110499;28;20042;-84
2022/01/26 04:55:06;;;;;;;67.57;20.75;;;3.20;99.90;;;;;;5122962;27;20558;-84
2022/01/26 04:57:32;;;;;;;73.22;20.92;;;3.20;99.90;;;;;;5107491;27;20122;-84
2022/01/26 04:59:58;;;;;;;68.82;21.65;;;3.30;99.90;;;;;;5125264;27;20115;-84
2022/01/26 05:02:24;;;;;;;66.53;22.00;;;3.40;99.90;;;;;;5121327;27;20031;-85
2022/01/26 05:04:50;;;;;;;61.03;19.90;;;3.30;99.90;;;;;;5125441;27;20047;-84
2022/01/26 05:07:15;;;;;;;68.60;21.03;;;3.30;99.90;;;;;;5123453;27;20028;-84
2022/01/26 05:09:41;;;;;;;62.17;20.10;;;3.30;99.90;;;;;;5120816;27;20040;-84
2022/01/26 05:12:08;;;;;;;62.85;20.70;;;3.30;99.90;;;;;;5121311;27;20036;-85
2022/01/26 05:14:34;;;;;;;62.95;20.52;;;3.20;99.90;;;;;;5124646;27;20043;-86
2022/01/26 05:16:59;;;;;;;66.53;21.77;;;3.10;99.90;;;;;;5129213;27;20478;-85
2022/01/26 05:19:25;;;;;;;66.28;20.58;;;3.20;99.90;;;;;;5105845;27;20031;-85
2022/01/26 05:21:51;;;;;;;63.38;20.92;;;3.20;99.90;;;;;;5121191;27;20043;-86
2022/01/26 05:24:17;;;;;;;58.90;20.27;;;4.40;99.90;;;;;;5124072;27;20085;-85
2022/01/26 05:26:42;;;;;;;60.30;19.50;;;3.20;99.90;;;;;;5121256;27;20126;-86
2022/01/26 05:29:08;;;;;;;57.70;20.08;;;3.10;99.90;;;;;;5124276;27;20285;-85
2022/01/26 05:31:34;;;;;;;61.13;19.77;;;3.10;99.90;;;;;;5107598;27;20035;-85
2022/01/26 05:34:00;;;;;;;59.22;19.55;;;3.10;99.90;;;;;;5117569;27;20301;-86
2022/01/26 05:36:26;;;;;;;64.15;19.52;;;3.90;99.90;;;;;;5101543;27;20075;-77
2022/01/26 05:38:51;;;;;;;58.10;19.00;;;5.10;99.90;;;;;;5119608;27;20081;-77
2022/01/26 05:41:17;;;;;;;54.78;18.20;;;5.00;99.90;;;;;;5144278;27;20391;-76
2022/01/26 05:43:43;;;;;;;54.45;17.80;;;3.20;99.90;;;;;;5138543;27;20035;-75
2022/01/26 05:46:16;;;;;;;58.42;18.20;;;4.30;99.90;;;;;;5138910;27;20094;-75
2022/01/26 05:48:45;;;;;;;61.88;19.38;;;3.40;99.90;;;;;;5137237;27;20042;-75
2022/01/26 05:51:12;;;;;;;63.65;19.92;;;2.40;99.90;;;;;;5142842;27;20031;-75
2022/01/26 05:53:40;;;;;;;61.97;18.77;;;4.50;99.90;;;;;;5136457;27;20039;-75
2022/01/26 05:56:06;;;;;;;57.50;18.30;;;3.50;99.90;;;;;;5143887;27;20041;-75
2022/01/26 05:58:32;;;;;;;63.63;19.92;;;3.70;99.90;;;;;;5138519;27;20473;-75
2022/01/26 06:01:00;;;;;;;66.90;21.02;;;3.00;99.90;;;;;;5136742;27;20071;-75
2022/01/26 06:03:30;;;;;;;55.95;18.80;;;3.10;99.90;;;;;;5122924;27;20043;-75
2022/01/26 06:05:56;;;;;;;60.05;18.35;;;3.10;99.90;;;;;;5143482;27;20181;-75
2022/01/26 06:08:22;;;;;;;64.72;20.08;;;4.70;99.90;;;;;;5138611;27;20102;-75
2022/01/26 06:10:51;;;;;;;61.53;19.15;;;3.00;99.90;;;;;;5144158;27;20055;-75
2022/01/26 06:13:17;;;;;;;62.45;20.80;;;4.60;99.90;;;;;;5142662;27;20043;-75
2022/01/26 06:15:44;;;;;;;57.95;18.83;;;3.00;99.90;;;;;;5122491;27;20109;-77
2022/01/26 06:18:11;;;;;;;53.88;19.73;;;3.00;99.90;;;;;;5138763;27;20123;-75
2022/01/26 06:20:37;;;;;;;64.90;20.40;;;3.00;99.90;;;;;;5136105;27;20045;-75
2022/01/26 06:23:03;;;;;;;;;;;3.00;99.90;;;;;;5136936;27;20038;-75
2022/01/26 06:25:29;;;;;;;62.22;20.80;;;4.60;99.90;;;;;;5146668;27;20354;-75
2022/01/26 06:27:58;;;;;;;62.50;21.70;;;2.90;99.90;;;;;;5144168;27;20034;-75
2022/01/26 06:30:24;;;;;;;64.57;21.35;;;4.30;99.90;;;;;;5143689;27;20035;-75
2022/01/26 06:32:50;;;;;;;64.75;20.80;;;2.90;99.90;;;;;;5119205;27;20034;-75
2022/01/26 06:35:17;;;;;;;62.30;21.30;;;4.50;99.90;;;;;;5133033;27;20090;-75
2022/01/26 06:37:45;;;;;;;;;;;2.90;99.90;;;;;;5147166;27;20038;-75
2022/01/26 06:40:11;;;;;;;65.30;21.13;;;2.90;99.90;;;;;;5122920;27;19938;-75
2022/01/26 06:43:01;;;;;;;62.42;21.92;;;2.70;99.90;;;;;;5136042;27;20394;-75
2022/01/26 06:45:27;;;;;;;63.03;22.42;;;3.20;99.90;;;;;;5121493;27;20439;-75
2022/01/26 06:50:24;;;;;;;65.95;21.15;;;2.90;99.90;;;;;;5143656;27;20039;-75
2022/01/26 06:52:51;;;;;;;69.00;22.17;;;4.10;99.90;;;;;;5114649;28;20062;-75
2022/01/26 06:55:19;;;;;;;62.70;20.50;;;2.90;99.90;;;;;;5145599;27;20030;-75
2022/01/26 06:57:44;;;;;;;62.65;20.70;;;3.00;99.90;;;;;;5122753;27;20034;-75
2022/01/26 07:00:11;;;;;;;65.05;21.38;;;3.00;99.90;;;;;;5141334;27;20035;-75
2022/01/26 07:02:39;;;;;;;66.63;22.17;;;3.00;99.90;;;;;;5143207;27;20034;-75
2022/01/26 07:05:06;;;;;;;69.28;23.65;;;3.00;99.90;;;;;;5122690;27;20049;-75
2022/01/26 07:07:32;;;;;;;61.35;21.85;;;3.00;99.90;;;;;;5148675;27;20485;-75
2022/01/26 07:09:58;;;;;;;60.13;21.73;;;2.90;99.90;;;;;;5136627;27;20035;-75
2022/01/26 07:12:24;;;;;;;69.90;23.05;;;3.30;99.90;;;;;;5130815;28;20042;-75
2022/01/26 07:22:47;;;;;;;68.53;22.75;;;3.10;99.90;;;;;;5104678;27;20127;-75
2022/01/26 07:25:13;;;;;;;73.53;23.30;;;4.00;99.90;;;;;;5138273;27;20123;-75
2022/01/26 07:27:40;;;;;;;75.63;24.55;;;3.10;99.90;;;;;;5102947;27;20118;-75
2022/01/26 07:30:07;;;;;;;70.45;23.48;;;3.10;99.90;;;;;;5137797;27;20503;-75
2022/01/26 07:32:35;;;;;;;74.47;25.20;;;3.20;99.90;;;;;;5140660;27;20042;-75
2022/01/26 07:35:01;;;;;;;76.75;25.33;;;3.90;99.90;;;;;;5107991;27;20054;-75
2022/01/26 07:37:27;;;;;;;77.88;24.95;;;3.10;99.90;;;;;;5118560;27;20027;-75
2022/01/26 07:40:06;;;;;;;78.68;25.60;;;3.10;99.90;;;;;;5144515;27;20077;-74
2022/01/26 07:42:32;;;;;;;70.07;23.77;;;2.60;99.90;;;;;;5142223;27;20058;-74
2022/01/26 07:44:58;;;;;;;72.53;26.05;;;3.10;99.90;;;;;;5110310;27;20050;-74
2022/01/26 07:47:24;;;;;;;75.45;25.00;;;3.50;99.90;;;;;;5093428;27;20398;-74
2022/01/26 07:49:54;;;;;;;78.55;26.20;;;3.60;99.90;;;;;;5143597;27;20046;-75
2022/01/26 07:52:19;;;;;;;79.72;26.42;;;3.10;99.90;;;;;;5136079;27;20182;-75
2022/01/26 07:54:47;;;;;;;72.63;25.00;;;3.50;99.90;;;;;;5137580;27;20118;-75
2022/01/26 07:57:13;;;;;;;77.10;25.98;;;3.20;99.90;;;;;;5103001;27;20049;-75
2022/01/26 07:59:39;;;;;;;75.25;27.33;;;3.50;99.90;;;;;;5137808;27;20031;-74
2022/01/26 08:02:05;;;;;;;77.77;26.80;;;3.20;99.90;;;;;;5126472;27;20083;-74
2022/01/26 08:04:30;;;;;;;78.45;26.88;;;3.20;99.90;;;;;;5126573;27;20687;-74
2022/01/26 08:06:56;;;;;;;76.32;25.88;;;3.20;99.90;;;;;;5109277;27;20554;-75
2022/01/26 08:09:22;;;;;;;80.93;27.65;;;3.10;99.90;;;;;;5118128;27;20054;-74
2022/01/26 08:11:47;;;;;;;81.47;26.73;;;3.20;99.90;;;;;;5135341;27;20038;-74
2022/01/26 08:14:13;;;;;;;90.03;27.77;;;4.40;99.90;;;;;;5113637;27;20035;-75
2022/01/26 08:16:39;;;;;;;89.72;29.17;;;3.20;99.90;;;;;;5130553;27;20074;-74
2022/01/26 08:19:05;;;;;;;80.50;27.83;;;3.20;99.90;;;;;;5129243;27;20039;-74
2022/01/26 08:21:31;;;;;;;83.30;27.45;;;3.20;99.90;;;;;;5108701;27;20035;-75
2022/01/26 08:24:03;;;;;;;86.18;29.33;;;3.20;99.90;;;;;;5118672;27;20099;-74
2022/01/26 08:26:40;;;;;;;86.57;28.60;;;3.20;99.90;;;;;;5122866;27;20035;-75
2022/01/26 08:29:13;;;;;;;;;;;3.30;99.90;;;;;;5118274;27;20111;-75
2022/01/26 08:31:38;;;;;;;88.00;29.75;;;3.30;99.90;;;;;;5127694;27;19915;-75
2022/01/26 08:34:04;;;;;;;91.95;30.27;;;3.20;99.90;;;;;;5118875;27;20031;-74
2022/01/26 08:36:30;;;;;;;85.63;30.48;;;3.20;99.90;;;;;;5083321;27;20039;-74
2022/01/26 08:38:56;;;;;;;86.00;31.10;;;3.40;99.90;;;;;;5109341;27;20049;-75
2022/01/26 08:41:23;;;;;;;91.53;30.80;;;3.30;99.90;;;;;;5111038;27;20042;-74
2022/01/26 08:43:48;;;;;;;83.47;27.77;;;3.30;99.90;;;;;;5112284;27;20051;-74
2022/01/26 08:46:17;;;;;;;94.57;30.70;;;3.40;99.90;;;;;;5131950;27;20046;-74
2022/01/26 08:48:43;;;;;;;91.82;29.90;;;3.40;99.90;;;;;;5105259;27;20038;-74
2022/01/26 08:51:09;;;;;;;92.30;31.15;;;3.40;99.90;;;;;;5121800;27;20483;-74
2022/01/26 08:53:35;;;;;;;89.63;31.15;;;4.50;99.90;;;;;;5104752;27;20050;-74
2022/01/26 08:56:01;;;;;;;96.07;32.08;;;3.40;99.90;;;;;;5109744;27;20451;-80
2022/01/26 08:58:26;;;;;;;101.32;33.05;;;3.40;99.90;;;;;;5111316;27;20474;-80
2022/01/26 09:00:54;;;;;;;93.93;31.10;;;3.40;99.90;;;;;;5128774;27;20043;-80
2022/01/26 09:03:20;;;;;;;89.53;29.83;;;3.40;99.90;;;;;;5125279;27;20051;-80
2022/01/26 09:05:46;;;;;;;95.13;31.30;;;3.40;99.90;;;;;;5125877;27;20670;-80
2022/01/26 09:08:12;;;;;;;95.22;32.28;;;3.40;99.90;;;;;;5108983;27;20051;-80
2022/01/26 09:10:39;;;;;;;89.78;29.65;;;3.40;99.90;;;;;;5123080;27;20077;-80
2022/01/26 09:13:05;;;;;;;92.53;32.83;;;3.40;99.90;;;;;;5124337;27;20047;-81
2022/01/26 09:15:32;;;;;;;92.35;31.73;;;3.40;99.90;;;;;;5107002;27;20384;-81
2022/01/26 09:18:03;;;;;;;90.70;31.08;;;3.40;99.90;;;;;;5125500;27;20042;-80
2022/01/26 09:20:28;;;;;;;92.00;31.02;;;3.50;99.90;;;;;;5126888;27;20066;-82
2022/01/26 09:22:54;;;;;;;83.82;29.52;;;3.50;99.90;;;;;;5110479;27;20093;-80
2022/01/26 09:25:20;;;;;;;96.63;32.15;;;3.50;99.90;;;;;;5126165;27;20043;-80
2022/01/26 09:27:46;;;;;;;90.75;31.00;;;4.30;99.90;;;;;;5126093;27;20038;-79
2022/01/26 09:30:12;;;;;;;86.63;30.83;;;3.60;99.90;;;;;;5122827;27;20046;-80
2022/01/26 09:32:38;;;;;;;90.05;30.58;;;3.60;99.90;;;;;;5127658;27;20035;-81
2022/01/26 09:35:08;;;;;;;90.43;31.38;;;3.70;99.90;;;;;;5120305;27;20047;-81
2022/01/26 09:37:35;;;;;;;82.38;29.05;;;3.70;99.90;;;;;;5127582;27;20051;-80
2022/01/26 09:40:00;;;;;;;89.85;30.17;;;3.70;99.90;;;;;;5125399;27;20486;-81
2022/01/26 09:42:26;;;;;;;84.60;30.08;;;3.70;99.90;;;;;;5125003;27;20035;-81
2022/01/26 09:44:52;;;;;;;86.57;28.52;;;3.70;99.90;;;;;;5125877;27;20385;-80
2022/01/26 09:47:21;;;;;;;85.72;29.85;;;3.70;99.90;;;;;;5127175;27;20137;-81
2022/01/26 09:49:49;;;;;;;88.38;28.33;;;4.40;99.90;;;;;;5106477;27;20047;-81
2022/01/26 09:52:27;;;;;;;81.05;29.13;;;3.80;99.90;;;;;;5123791;27;20047;-81
2022/01/26 09:54:56;;;;;;;82.03;27.55;;;3.80;99.90;;;;;;5126079;27;20500;-81
2022/01/26 09:57:22;;;;;;;78.95;28.08;;;4.00;99.90;;;;;;5125300;27;20649;-81
2022/01/26 09:59:48;;;;;;;82.80;28.80;;;3.90;99.90;;;;;;5125900;27;20099;-81
2022/01/26 10:02:22;;;;;;;72.97;27.45;;;3.90;99.90;;;;;;5076888;27;20079;-82
2022/01/26 10:04:55;;;;;;;68.72;25.27;;;3.90;99.90;;;;;;5126084;27;20047;-81
2022/01/26 10:07:28;;;;;;;74.38;26.73;;;4.10;99.90;;;;;;5106381;27;20102;-81
2022/01/26 10:10:18;;;;;;;73.38;27.67;;;4.00;99.90;;;;;;5108713;27;20039;-82
2022/01/26 10:15:40;;;;;;;75.55;26.42;;;4.10;99.90;;;;;;5124802;27;20038;-81
2022/01/26 10:18:21;;;;;;;70.72;27.15;;;4.10;99.90;;;;;;5125148;27;20354;-82
2022/01/26 10:20:56;;;;;;;72.60;26.65;;;4.40;99.90;;;;;;5106107;27;20031;-82
2022/01/26 10:23:27;;;;;;;70.05;25.00;;;4.30;99.90;;;;;;5121873;27;20110;-81
2022/01/26 10:26:14;;;;;;;75.60;26.13;;;4.20;99.90;;;;;;5091252;27;20051;-81
2022/01/26 10:28:52;;;;;;;69.53;23.83;;;4.30;99.90;;;;;;5125018;27;20481;-81
2022/01/26 10:31:21;;;;;;;73.82;27.10;;;4.20;99.90;;;;;;5123320;27;20045;-81
2022/01/26 10:34:06;;;;;;;72.75;24.95;;;4.20;99.90;;;;;;5123531;27;20034;-82
2022/01/26 10:36:56;;;;;;;72.30;24.95;;;4.30;99.90;;;;;;5125631;27;20117;-81
2022/01/26 10:39:33;;;;;;;69.47;25.23;;;4.30;99.90;;;;;;5120771;27;20046;-81
2022/01/26 10:42:06;;;;;;;70.53;25.33;;;4.30;99.90;;;;;;5118407;27;20038;-81
2022/01/26 10:44:36;;;;;;;68.90;25.05;;;4.30;99.90;;;;;;5105127;27;20056;-81
2022/01/26 10:47:05;;;;;;;70.20;24.45;;;4.40;99.90;;;;;;5109500;27;20035;-81
2022/01/26 10:52:38;;;;;;;71.00;24.42;;;4.40;99.90;;;;;;5123262;27;20431;-81
2022/01/26 10:55:09;;;;;;;71.28;24.23;;;4.40;99.90;;;;;;5126095;27;20077;-81
2022/01/26 10:57:36;;;;;;;64.13;23.95;;;4.50;99.90;;;;;;5103020;27;20031;-81
2022/01/26 11:00:05;;;;;;;66.80;24.23;;;4.40;99.90;;;;;;5123206;27;20102;-81
2022/01/26 11:02:33;;;;;;;66.55;22.30;;;4.40;99.90;;;;;;5109546;27;20066;-82
2022/01/26 11:04:59;;;;;;;62.97;23.63;;;4.50;99.90;;;;;;5107470;27;20035;-81
2022/01/26 11:07:37;;;;;;;65.00;21.95;;;4.50;99.90;;;;;;5104948;27;20039;-81
2022/01/26 11:10:07;;;;;;;58.50;21.02;;;4.50;99.90;;;;;;5128476;27;20541;-81
2022/01/26 11:12:37;;;;;;;60.20;21.45;;;4.50;99.90;;;;;;5131017;27;20031;-81
2022/01/26 11:15:03;;;;;;;65.45;21.25;;;4.50;99.90;;;;;;5128029;27;20042;-81
2022/01/26 11:17:36;;;;;;;68.35;23.20;;;4.40;99.90;;;;;;5125331;27;20041;-81
2022/01/26 11:20:17;;;;;;;61.53;21.42;;;4.40;99.90;;;;;;5119531;27;20092;-81
2022/01/26 11:22:55;;;;;;;61.28;23.25;;;4.50;99.90;;;;;;5106896;27;20038;-81
2022/01/26 11:25:23;;;;;;;62.47;20.88;;;4.40;99.90;;;;;;5122546;27;20046;-81
2022/01/26 11:27:50;;;;;;;63.53;23.42;;;4.40;99.90;;;;;;5116426;27;20127;-81
2022/01/26 11:30:26;;;;;;;71.13;23.25;;;4.80;99.90;;;;;;5128132;27;20027;-81
2022/01/26 11:33:01;;;;;;;69.53;23.45;;;4.40;99.90;;;;;;5125841;27;20049;-81
2022/01/26 11:35:34;;;;;;;69.88;23.67;;;4.40;99.90;;;;;;5126172;27;20043;-82
2022/01/26 11:38:07;;;;;;;72.28;24.02;;;4.40;99.90;;;;;;5128653;27;20502;-82
2022/01/26 11:46:33;;;;;;;68.22;22.55;;;4.40;99.90;;;;;;5122841;27;20099;-81
2022/01/26 11:49:11;;;;;;;68.72;22.80;;;4.50;99.90;;;;;;5126782;27;20046;-81
2022/01/26 11:51:46;;;;;;;65.40;21.65;;;4.50;99.90;;;;;;5127418;27;20070;-81
2022/01/26 11:54:17;;;;;;;63.22;22.08;;;4.50;99.90;;;;;;5125356;27;20047;-81
2022/01/26 11:57:08;;;;;;;63.63;22.65;;;4.50;99.90;;;;;;5126958;27;20045;-81
2022/01/26 11:59:36;;;;;;;64.00;22.08;;;4.50;99.90;;;;;;5123079;27;20389;-81
2022/01/26 12:02:29;;;;;;;67.90;22.85;;;4.50;99.90;;;;;;5110203;27;20099;-81
2022/01/26 12:05:10;;;;;;;62.08;20.33;;;4.50;99.90;;;;;;5124844;27;20039;-81
2022/01/26 12:07:53;;;;;;;74.75;24.77;;;4.60;99.90;;;;;;5126950;27;20073;-81
2022/01/26 12:10:26;;;;;;;75.07;24.85;;;4.50;99.90;;;;;;5128842;27;20434;-81
2022/01/26 12:13:07;;;;;;;79.30;26.35;;;4.60;99.90;;;;;;5125920;27;20463;-81
2022/01/26 12:15:43;;;;;;;72.97;24.67;;;4.50;99.90;;;;;;5129458;27;20123;-82
2022/01/26 12:35:11;;;;;;;63.60;22.55;;;4.60;99.90;;;;;;5128056;27;20498;-81
2022/01/26 12:43:38;;;;;;;66.72;23.35;;;4.80;99.90;;;;;;5126802;27;20448;-81
2022/01/26 12:46:09;;;;;;;75.85;23.75;;;4.70;99.90;;;;;;5114208;27;20047;-81
2022/01/26 12:48:39;;;;;;;70.55;23.25;;;4.60;99.90;;;;;;5109747;27;20039;-80
2022/01/26 12:51:07;;;;;;;69.40;23.55;;;4.60;99.90;;;;;;5124449;27;20493;-81
2022/01/26 12:53:35;;;;;;;59.15;21.52;;;4.60;99.90;;;;;;5127354;27;20046;-80
2022/01/26 12:56:04;;;;;;;71.53;23.65;;;5.20;99.90;;;;;;5124858;27;20110;-82
2022/01/26 12:58:32;;;;;;;65.80;22.38;;;4.60;99.90;;;;;;5126364;27;20085;-81
2022/01/26 13:01:03;;;;;;;61.58;20.85;;;5.10;99.90;;;;;;5125402;27;20043;-80
2022/01/26 13:03:31;;;;;;;64.00;22.30;;;4.60;99.90;;;;;;5123103;27;20062;-81
2022/01/26 13:06:23;;;;;;;70.65;22.75;;;5.00;99.90;;;;;;5124734;27;20393;-80
2022/01/26 13:08:57;;;;;;;68.97;23.17;;;4.80;99.90;;;;;;5128737;27;20494;-81
2022/01/26 13:11:26;;;;;;;67.00;22.98;;;4.70;99.90;;;;;;5123606;27;20050;-80
2022/01/26 13:14:19;;;;;;;64.20;22.67;;;4.80;99.90;;;;;;5124731;27;20165;-81
2022/01/26 13:17:14;;;;;;;63.95;22.90;;;4.80;99.90;;;;;;5108176;27;20074;-80
2022/01/26 13:20:00;;;;;;;64.72;21.58;;;4.80;99.90;;;;;;5124875;27;20038;-81
2022/01/26 13:38:39;;;;;;;62.42;21.92;;;5.10;99.90;;;;;;5119344;27;20045;-81
2022/01/26 13:47:09;;;;;;;55.70;20.52;;;5.70;99.90;;;;;;5118394;27;20043;-80
2022/01/26 13:55:22;;;;;;;60.28;20.08;;;5.20;99.90;;;;;;5125239;27;20038;-81
2022/01/26 13:57:47;;;;;;;59.88;20.30;;;5.20;99.90;;;;;;5120812;27;20091;-80
2022/01/26 14:00:16;;;;;;;55.08;20.42;;;5.20;99.90;;;;;;5114561;27;20501;-80
2022/01/26 14:02:42;;;;;;;54.03;20.73;;;5.20;99.90;;;;;;5122458;27;20069;-80
2022/01/26 14:05:09;;;;;;;48.55;19.23;;;5.30;99.90;;;;;;5123509;27;20452;-80
2022/01/26 14:07:35;;;;;;;;;;;5.30;99.90;;;;;;5124458;27;20617;-80
2022/01/26 14:10:01;;;;;;;56.85;20.77;;;5.30;99.90;;;;;;5121940;27;19919;-80
2022/01/26 14:12:32;;;;;;;55.55;20.83;;;5.30;99.90;;;;;;5121411;27;20368;-80
2022/01/26 14:14:59;;;;;;;52.28;21.30;;;6.00;99.90;;;;;;5106488;27;20035;-80
2022/01/26 14:17:39;;;;;;;56.00;20.80;;;5.30;99.90;;;;;;5123905;27;20450;-80
2022/01/26 14:20:11;;;;;;;60.83;20.48;;;5.30;99.90;;;;;;5124116;27;20035;-80
2022/01/26 14:25:15;;;;;;;52.63;20.55;;;5.20;99.90;;;;;;5106256;27;20037;-80
2022/01/26 14:27:46;;;;;;;57.60;20.58;;;5.30;99.90;;;;;;5121538;27;20045;-80
2022/01/26 14:50:54;;;;;;;52.47;17.33;;;5.30;99.90;;;;;;5123183;27;20043;-80
2022/01/26 15:34:58;;;;;;;54.67;20.27;;;5.40;99.90;;;;;;5121725;27;20056;-75
2022/01/26 15:51:02;;;;;;;54.08;19.15;;;5.40;99.90;;;;;;5117570;28;20043;-74
2022/01/26 16:07:27;;;;;;;58.17;19.95;;;5.50;99.90;;;;;;5089937;28;20464;-75
2022/01/26 16:12:45;;;;;;;50.08;18.00;;;5.50;99.90;;;;;;5112413;27;20099;-74
2022/01/26 18:33:03;;;;;;;43.47;15.77;;;5.90;99.90;;;;;;5115055;27;20050;-76
2022/01/26 18:49:11;;;;;;;38.97;14.98;;;5.80;99.90;;;;;;5135653;27;20039;-76
2022/01/26 18:49:41;;;;;;;37.33;15.27;;;5.80;99.90;;;;;;5124214;27;20475;-79
2022/01/26 18:52:08;;;;;;;36.47;15.05;;;5.90;99.90;;;;;;5135894;27;20117;-76
2022/01/26 18:54:39;;;;;;;36.10;14.38;;;5.90;99.90;;;;;;5119679;27;20481;-76
2022/01/26 18:57:17;;;;;;;36.58;15.40;;;5.90;99.90;;;;;;5139217;27;20351;-81
2022/01/26 19:00:03;;;;;;;31.75;12.77;;;5.90;99.90;;;;;;5132581;27;20027;-76
2022/01/26 19:02:29;;;;;;;32.38;14.07;;;5.90;99.90;;;;;;5101692;27;20042;-74
2022/01/26 19:04:54;;;;;;;39.33;14.20;;;6.00;99.90;;;;;;5145092;27;20123;-74
2022/01/26 19:07:20;;;;;;;39.88;14.35;;;6.10;99.90;;;;;;5121556;27;20091;-75
2022/01/26 19:09:50;;;;;;;33.05;14.52;;;6.10;99.90;;;;;;5122037;28;20122;-74
2022/01/26 19:12:21;;;;;;;36.55;13.70;;;6.10;99.90;;;;;;5143783;27;20035;-78
2022/01/26 19:14:59;;;;;;;36.67;14.57;;;6.40;99.90;;;;;;5130936;27;20093;-73
2022/01/26 19:17:31;;;;;;;31.35;13.38;;;6.10;99.90;;;;;;5119852;27;20383;-75
2022/01/26 19:20:18;;;;;;;32.92;13.52;;;7.00;99.90;;;;;;5109963;28;20479;-76
2022/01/26 19:25:40;;;;;;;36.08;13.40;;;6.50;99.90;;;;;;5128508;27;20112;-74
2022/01/26 19:28:31;;;;;;;33.15;14.43;;;7.10;99.90;;;;;;5119520;27;20091;-74
2022/01/26 19:44:11;;;;;;;27.75;12.10;;;6.30;99.90;;;;;;5143733;27;20067;-74
2022/01/26 19:52:16;;;;;;;29.35;13.65;;;7.60;99.90;;;;;;5144424;27;20103;-74
2022/01/26 19:54:46;;;;;;;33.85;14.23;;;6.50;99.90;;;;;;5128669;27;20035;-74
2022/01/26 19:57:13;;;;;;;35.30;14.60;;;6.40;99.90;;;;;;5114875;27;20039;-73